Time;durP1;ratioP1;P1;durP2;ratioP2;P2;SDS_P1;SDS_P2;PMS_P1;PMS_P2;Temp;Humidity;BMP_temperature;BMP_pressure;BME280_temperature;BME280_humidity;BME280_pressure;Samples;Min_cycle;Max_cycle;Signal;HPM_P1;HPM_P2
2022/07/18 00:01:20;;;;;;;4.23;1.73;;;;;;;20.65;36.32;98722.78;8414617;28;20335;-76
2022/07/18 00:05:33;;;;;;;3.33;1.80;;;;;;;20.60;36.80;98722.28;8483949;27;20304;-75
2022/07/18 00:09:35;;;;;;;3.10;1.70;;;;;;;20.57;36.02;98725.09;8476934;28;20237;-75
2022/07/18 00:13:38;;;;;;;1.80;1.40;;;;;;;20.40;37.03;98723.69;8476547;28;20225;-76
2022/07/18 00:17:42;;;;;;;6.90;1.87;;;;;;;20.48;37.11;98729.22;8476754;28;20327;-75
2022/07/18 00:21:46;;;;;;;2.77;1.70;;;;;;;20.37;36.04;98736.22;8476656;28;20419;-75
2022/07/18 00:25:49;;;;;;;3.00;1.60;;;;;;;20.32;36.14;98736.59;8476031;28;20222;-75
2022/07/18 00:29:52;;;;;;;5.40;1.90;;;;;;;20.24;36.11;98749.44;8476225;28;20245;-75
2022/07/18 00:33:54;;;;;;;5.07;1.93;;;;;;;20.29;36.35;98750.78;8476219;28;20241;-75
2022/07/18 00:37:59;;;;;;;3.60;1.97;;;;;;;20.18;36.95;98749.88;8476054;28;20532;-75
2022/07/18 00:42:01;;;;;;;3.90;1.80;;;;;;;20.11;37.62;98739.78;8475571;28;20229;-75
2022/07/18 00:46:05;;;;;;;4.47;2.10;;;;;;;19.98;37.28;98746.03;8475637;28;20226;-76
2022/07/18 00:50:09;;;;;;;2.73;1.40;;;;;;;20.01;37.43;98748.44;8475664;28;20241;-75
2022/07/18 00:54:14;;;;;;;4.10;1.97;;;;;;;19.92;37.79;98745.50;8475147;28;20516;-75
2022/07/18 00:58:17;;;;;;;4.57;1.87;;;;;;;19.99;37.53;98740.69;8475310;28;20229;-75
2022/07/18 01:02:20;;;;;;;4.10;1.87;;;;;;;19.92;37.79;98742.88;8474929;28;20432;-75
2022/07/18 01:06:23;;;;;;;5.93;2.00;;;;;;;19.85;37.72;98744.25;8475141;28;20222;-75
2022/07/18 01:10:27;;;;;;;3.40;1.90;;;;;;;19.86;38.13;98739.88;8475035;28;20226;-75
2022/07/18 01:14:31;;;;;;;4.07;2.00;;;;;;;19.79;38.41;98742.06;8465616;28;20230;-75
2022/07/18 01:18:34;;;;;;;6.57;1.53;;;;;;;19.67;38.46;98735.03;8452081;28;20294;-76
2022/07/18 01:22:41;;;;;;;7.27;2.00;;;;;;;19.60;39.23;98731.13;8451819;28;20240;-76
2022/07/18 01:26:43;;;;;;;5.70;2.00;;;;;;;19.66;38.98;98728.91;8452067;28;20228;-75
2022/07/18 01:30:46;;;;;;;6.20;1.90;;;;;;;19.62;39.16;98730.06;8451655;28;20230;-75
2022/07/18 01:34:50;;;;;;;5.23;1.97;;;;;;;19.55;38.24;98734.06;8467724;28;20536;-74
2022/07/18 01:38:54;;;;;;;4.00;2.00;;;;;;;19.55;38.49;98739.31;8451311;28;20231;-74
2022/07/18 01:42:57;;;;;;;3.50;1.90;;;;;;;19.44;38.28;98739.22;8451245;28;20422;-75
2022/07/18 01:47:00;;;;;;;4.03;2.10;;;;;;;19.33;38.27;98742.59;8451076;28;20233;-75
2022/07/18 01:51:04;;;;;;;3.50;1.93;;;;;;;19.38;38.48;98742.25;8450802;28;20241;-74
2022/07/18 01:55:10;;;;;;;6.40;2.10;;;;;;;19.31;38.59;98737.44;8450704;28;20231;-74
2022/07/18 01:59:13;;;;;;;5.23;2.03;;;;;;;19.15;39.17;98742.03;8450709;28;20424;-75
2022/07/18 02:03:16;;;;;;;5.53;1.87;;;;;;;19.24;38.68;98744.03;8450161;28;20226;-74
2022/07/18 02:07:19;;;;;;;4.87;2.20;;;;;;;19.15;39.13;98747.28;8450392;28;20295;-75
2022/07/18 02:11:23;;;;;;;2.67;1.73;;;;;;;19.11;39.19;98746.69;8450292;28;20226;-75
2022/07/18 02:15:26;;;;;;;3.90;2.10;;;;;;;19.18;39.24;98744.47;8449992;28;20226;-75
2022/07/18 02:19:29;;;;;;;6.07;1.80;;;;;;;19.08;39.30;98738.16;8449936;28;20544;-75
2022/07/18 02:23:32;;;;;;;4.13;2.00;;;;;;;19.02;39.36;98747.28;8449817;28;20421;-74
2022/07/18 02:27:36;;;;;;;6.97;2.20;;;;;;;18.89;39.71;98738.53;8448619;28;20225;-75
2022/07/18 02:31:39;;;;;;;4.03;1.80;;;;;;;18.93;39.43;98745.25;8449362;28;20222;-75
2022/07/18 02:35:42;;;;;;;5.00;1.80;;;;;;;18.84;39.75;98741.47;8449514;28;20229;-75
2022/07/18 02:39:45;;;;;;;3.67;2.03;;;;;;;18.79;39.68;98750.53;8449270;28;20247;-75
2022/07/18 02:43:49;;;;;;;7.30;2.30;;;;;;;18.72;39.97;98744.88;8448532;28;20230;-74
2022/07/18 02:47:52;;;;;;;4.77;2.20;;;;;;;18.79;39.64;98751.41;8449115;28;20226;-74
2022/07/18 02:51:56;;;;;;;5.60;2.37;;;;;;;18.73;39.94;98744.78;8449000;28;20229;-75
2022/07/18 02:55:59;;;;;;;2.90;2.07;;;;;;;18.76;39.73;98755.03;8448685;28;20244;-75
2022/07/18 03:00:04;;;;;;;4.37;2.13;;;;;;;18.64;39.88;98750.63;8448441;28;20234;-75
2022/07/18 03:04:07;;;;;;;4.27;2.00;;;;;;;18.61;40.07;98752.59;8448347;28;20244;-74
2022/07/18 03:08:10;;;;;;;3.03;1.93;;;;;;;18.59;40.18;98746.59;8448377;28;20229;-75
2022/07/18 03:12:13;;;;;;;6.17;2.30;;;;;;;18.52;40.97;98754.00;8448225;28;20226;-74
2022/07/18 03:16:17;;;;;;;5.07;2.00;;;;;;;18.48;40.47;98747.28;8447976;28;20229;-75
2022/07/18 03:20:21;;;;;;;4.77;2.03;;;;;;;18.48;40.67;98745.50;8448021;28;20226;-74
2022/07/18 03:24:23;;;;;;;5.70;2.10;;;;;;;18.38;40.33;98739.19;8447792;28;20237;-75
2022/07/18 03:28:26;;;;;;;5.63;2.50;;;;;;;18.34;41.12;98743.78;8447709;28;20229;-74
2022/07/18 03:32:30;;;;;;;5.40;2.10;;;;;;;18.34;40.22;98738.53;8447644;28;20517;-74
2022/07/18 03:36:33;;;;;;;8.43;2.40;;;;;;;18.28;40.59;98743.34;8447569;28;20233;-75
2022/07/18 03:40:36;;;;;;;4.83;2.20;;;;;;;18.27;40.77;98741.63;8447630;28;20232;-75
2022/07/18 03:44:39;;;;;;;4.43;2.30;;;;;;;18.25;40.78;98740.91;8447233;28;20241;-75
2022/07/18 03:48:43;;;;;;;4.73;2.23;;;;;;;18.22;40.49;98751.56;8447617;28;20230;-75
2022/07/18 03:52:46;;;;;;;4.27;2.30;;;;;;;18.16;41.10;98748.41;8447436;28;20603;-75
2022/07/18 03:56:49;;;;;;;4.17;2.43;;;;;;;18.14;41.17;98752.91;8463284;28;20336;-74
2022/07/18 04:00:52;;;;;;;3.57;2.03;;;;;;;18.28;40.90;98751.19;8447091;28;20233;-75
2022/07/18 04:04:56;;;;;;;6.17;2.77;;;;;;;18.21;41.04;98740.25;8446714;28;20257;-75
2022/07/18 04:08:59;;;;;;;4.13;2.30;;;;;;;18.20;40.81;98738.59;8446708;28;20234;-74
2022/07/18 04:13:02;;;;;;;6.63;2.43;;;;;;;18.25;41.23;98744.34;8446595;28;20226;-74
2022/07/18 04:17:05;;;;;;;6.90;2.73;;;;;;;18.22;41.76;98752.44;8446531;28;20537;-75
2022/07/18 04:21:09;;;;;;;9.00;2.47;;;;;;;18.20;41.41;98750.81;8446447;28;20498;-75
2022/07/18 04:25:12;;;;;;;7.33;2.40;;;;;;;18.30;41.33;98749.31;8446266;28;20233;-74
2022/07/18 04:29:15;;;;;;;6.23;2.50;;;;;;;18.20;40.96;98751.69;8446527;28;20233;-75
2022/07/18 04:33:17;;;;;;;7.77;2.60;;;;;;;18.30;40.99;98746.69;8446568;28;20233;-74
2022/07/18 04:37:22;;;;;;;5.67;2.60;;;;;;;18.21;41.09;98744.66;8446401;28;20419;-74
2022/07/18 04:41:24;;;;;;;6.20;2.67;;;;;;;18.27;40.88;98736.41;8446626;28;20249;-75
2022/07/18 04:45:28;;;;;;;5.67;2.70;;;;;;;18.31;41.03;98743.94;8446270;28;20229;-75
2022/07/18 04:49:31;;;;;;;4.47;2.33;;;;;;;18.37;42.09;98745.34;8447860;28;20230;-78
2022/07/18 04:53:35;;;;;;;4.60;2.57;;;;;;;18.48;41.76;98753.38;8452453;28;20238;-77
2022/07/18 04:57:39;;;;;;;4.20;2.23;;;;;;;18.43;42.00;98747.59;8452438;28;20236;-78
2022/07/18 05:01:42;;;;;;;9.10;3.03;;;;;;;18.55;41.87;98743.34;8452065;28;20533;-78
2022/07/18 05:05:45;;;;;;;3.67;2.43;;;;;;;18.64;42.19;98758.47;8452217;28;20235;-77
2022/07/18 05:09:50;;;;;;;9.27;2.80;;;;;;;18.73;42.32;98762.28;8451546;28;20230;-78
2022/07/18 05:13:53;;;;;;;4.53;2.47;;;;;;;18.84;41.99;98764.25;8451982;28;20238;-77
2022/07/18 05:17:56;;;;;;;31.30;3.67;;;;;;;18.95;41.21;98759.13;8451097;28;20226;-73
2022/07/18 05:21:59;;;;;;;10.10;2.47;;;;;;;19.02;41.10;98751.66;8449368;28;20237;-75
2022/07/18 05:26:03;;;;;;;16.97;2.93;;;;;;;19.05;41.73;98754.09;8451556;28;20234;-75
2022/07/18 05:30:07;;;;;;;9.27;2.77;;;;;;;19.20;41.28;98753.06;8451626;28;20249;-76
2022/07/18 05:34:10;;;;;;;10.93;3.00;;;;;;;19.44;41.36;98760.22;8451183;28;20245;-75
2022/07/18 05:38:13;;;;;;;13.03;3.10;;;;;;;19.54;40.93;98759.50;8451024;28;20226;-75
2022/07/18 05:42:18;;;;;;;12.57;2.50;;;;;;;19.62;39.59;98758.97;8451120;28;20540;-75
2022/07/18 05:46:40;;;;;;;7.57;2.23;;;;;;;19.51;38.03;98759.72;8450669;28;20245;-75
2022/07/18 05:50:44;;;;;;;6.00;1.90;;;;;;;19.50;37.42;98759.81;8450663;28;20225;-75
2022/07/18 05:54:47;;;;;;;4.50;2.13;;;;;;;19.88;36.59;98765.09;8450627;28;20548;-75
2022/07/18 05:58:51;;;;;;;4.93;2.10;;;;;;;20.01;36.49;98762.44;8465627;28;20226;-75
2022/07/18 06:02:54;;;;;;;4.50;1.63;;;;;;;19.77;36.34;98762.38;8445394;28;20234;-75
2022/07/18 06:06:57;;;;;;;5.03;1.83;;;;;;;20.14;35.40;98767.66;8445280;28;20234;-75
2022/07/18 06:11:00;;;;;;;4.97;1.90;;;;;;;20.06;35.29;98764.72;8445567;28;20234;-75
2022/07/18 06:15:07;;;;;;;5.27;1.70;;;;;;;20.51;34.91;98760.59;8445728;28;20227;-75
2022/07/18 06:19:09;;;;;;;7.27;2.10;;;;;;;20.62;34.38;98757.22;8445495;28;20228;-75
2022/07/18 06:23:12;;;;;;;4.40;1.80;;;;;;;20.64;33.83;98754.50;8445335;28;20226;-75
2022/07/18 06:27:15;;;;;;;6.43;2.00;;;;;;;20.40;33.41;98752.63;8445299;28;20529;-75
2022/07/18 06:31:19;;;;;;;5.70;2.00;;;;;;;20.72;33.71;98748.66;8444988;28;20410;-75
2022/07/18 06:35:22;;;;;;;5.17;2.00;;;;;;;20.94;33.45;98742.63;8444813;28;20323;-75
2022/07/18 06:39:25;;;;;;;5.00;1.83;;;;;;;21.32;33.74;98746.78;8445091;28;20245;-76
2022/07/18 06:43:28;;;;;;;4.40;2.00;;;;;;;21.28;32.48;98743.56;8444917;28;20230;-76
2022/07/18 06:47:32;;;;;;;8.93;2.20;;;;;;;21.24;32.40;98744.75;8444834;28;20234;-75
2022/07/18 06:51:34;;;;;;;6.70;2.10;;;;;;;21.47;32.60;98740.38;8444262;28;20233;-76
2022/07/18 06:55:37;;;;;;;7.37;1.87;;;;;;;21.65;32.29;98733.69;8444030;28;20523;-75
2022/07/18 06:59:40;;;;;;;6.73;1.70;;;;;;;22.00;31.93;98731.88;8443916;28;20226;-76
2022/07/18 07:03:51;;;;;;;4.73;1.90;;;;;;;22.17;31.82;98734.00;8452232;28;20237;-74
2022/07/18 07:07:54;;;;;;;6.10;1.80;;;;;;;22.01;31.53;98737.03;8448436;28;20537;-75
2022/07/18 07:11:57;;;;;;;3.57;1.80;;;;;;;22.78;32.14;98738.75;8447656;28;20235;-75
2022/07/18 07:16:00;;;;;;;7.23;1.90;;;;;;;23.08;30.87;98744.31;8447914;28;20231;-75
2022/07/18 07:20:05;;;;;;;17.73;2.47;;;;;;;22.77;30.46;98746.81;8447922;28;20230;-75
2022/07/18 07:24:08;;;;;;;7.53;2.10;;;;;;;23.51;29.66;98732.75;8447841;28;20226;-75
2022/07/18 07:28:11;;;;;;;7.33;2.03;;;;;;;23.82;29.88;98749.47;8447759;28;20220;-75
2022/07/18 07:32:14;;;;;;;5.97;1.73;;;;;;;24.04;30.23;98745.78;8447778;28;20233;-75
2022/07/18 07:36:18;;;;;;;15.67;2.00;;;;;;;24.17;28.32;98745.56;8447708;28;20222;-75
2022/07/18 07:40:21;;;;;;;7.13;1.80;;;;;;;24.55;28.83;98749.28;8447582;28;20233;-75
2022/07/18 07:44:24;;;;;;;5.90;1.70;;;;;;;24.89;28.21;98749.69;8447295;28;20230;-75
2022/07/18 07:48:27;;;;;;;7.53;2.00;;;;;;;25.13;27.46;98741.31;8447406;28;20221;-75
2022/07/18 07:52:31;;;;;;;9.57;1.90;;;;;;;25.39;27.10;98739.91;8447396;28;20233;-76
2022/07/18 07:56:35;;;;;;;6.57;1.70;;;;;;;25.77;27.52;98740.75;8446369;28;20543;-77
2022/07/18 08:00:37;;;;;;;9.47;1.70;;;;;;;25.92;27.48;98752.59;8455454;28;20263;-78
2022/07/18 08:04:40;;;;;;;7.70;2.20;;;;;;;25.89;25.61;98759.00;8463739;28;20532;-77
2022/07/18 08:08:44;;;;;;;3.83;1.80;;;;;;;26.56;27.38;98752.63;8463606;28;20234;-76
2022/07/18 08:12:48;;;;;;;3.73;1.47;;;;;;;26.79;25.11;98742.41;8480421;28;20230;-75
2022/07/18 08:16:50;;;;;;;6.23;1.57;;;;;;;26.83;25.06;98736.66;8480703;28;20239;-76
2022/07/18 08:20:53;;;;;;;5.93;1.50;;;;;;;27.05;26.22;98732.66;8480581;28;20229;-77
2022/07/18 08:24:58;;;;;;;5.77;1.80;;;;;;;27.10;24.22;98725.06;8483136;28;20559;-77
2022/07/18 08:29:00;;;;;;;2.97;1.53;;;;;;;27.45;24.29;98727.81;8487291;28;20234;-76
2022/07/18 08:33:03;;;;;;;6.23;1.67;;;;;;;27.48;23.10;98724.84;8487291;28;20562;-76
2022/07/18 08:37:06;;;;;;;7.67;1.90;;;;;;;27.59;23.98;98719.25;8487245;28;20226;-77
2022/07/18 08:41:10;;;;;;;5.10;1.30;;;;;;;28.16;24.11;98723.16;8487064;28;20234;-76
2022/07/18 08:45:13;;;;;;;6.13;1.67;;;;;;;28.41;23.28;98724.06;8486839;28;20240;-78
2022/07/18 08:49:16;;;;;;;4.43;1.60;;;;;;;28.63;23.14;98723.44;8486503;28;20234;-77
2022/07/18 08:53:20;;;;;;;2.67;1.40;;;;;;;28.68;22.61;98719.47;8486558;28;20524;-78
2022/07/18 08:57:24;;;;;;;4.80;1.63;;;;;;;29.04;22.86;98715.47;8456356;28;20336;-78
2022/07/18 09:01:27;;;;;;;3.37;1.70;;;;;;;29.04;21.22;98717.31;8452428;28;20234;-77
2022/07/18 09:05:31;;;;;;;5.80;1.70;;;;;;;29.47;21.33;98711.75;8452331;28;20230;-77
2022/07/18 09:09:37;;;;;;;4.40;1.50;;;;;;;29.79;21.73;98710.84;8452191;28;20227;-78
2022/07/18 09:13:42;;;;;;;3.67;1.80;;;;;;;29.33;21.13;98703.44;8452170;28;20228;-77
2022/07/18 09:17:45;;;;;;;6.23;1.80;;;;;;;28.96;20.92;98702.16;8451988;28;20235;-78
2022/07/18 09:21:48;;;;;;;3.93;1.63;;;;;;;29.32;21.26;98706.28;8451534;28;20232;-77
2022/07/18 09:25:51;;;;;;;6.53;1.67;;;;;;;29.94;20.77;98706.44;8451639;28;20236;-77
2022/07/18 09:30:16;;;;;;;6.03;1.63;;;;;;;30.18;20.75;98702.81;8451548;28;20231;-77
2022/07/18 09:34:33;;;;;;;3.97;1.70;;;;;;;30.14;19.57;98706.84;8450716;28;20234;-78
2022/07/18 09:38:37;;;;;;;4.17;1.60;;;;;;;30.41;19.83;98696.69;8451011;28;20236;-79
2022/07/18 09:42:40;;;;;;;6.70;1.57;;;;;;;30.82;19.40;98693.69;8451004;28;20233;-78
2022/07/18 09:47:00;;;;;;;5.33;1.77;;;;;;;30.60;18.80;98701.56;8450772;28;20230;-77
2022/07/18 09:51:05;;;;;;;4.93;1.70;;;;;;;30.93;19.98;98690.63;8450505;28;20230;-78
2022/07/18 09:55:08;;;;;;;4.97;1.50;;;;;;;31.42;20.09;98693.81;8450583;28;20238;-78
2022/07/18 09:59:12;;;;;;;6.73;1.70;;;;;;;31.13;18.36;98690.94;8450592;28;20225;-78
2022/07/18 10:03:18;;;;;;;7.97;2.03;;;;;;;30.92;18.52;98680.09;8450478;28;20238;-79
2022/07/18 10:07:21;;;;;;;6.53;1.67;;;;;;;31.08;18.37;98679.13;8450246;28;20545;-79
2022/07/18 10:11:24;;;;;;;5.57;1.60;;;;;;;31.26;17.72;98678.75;8450119;28;20433;-78
2022/07/18 10:15:29;;;;;;;5.53;1.40;;;;;;;31.40;17.65;98683.31;8450511;28;20228;-80
2022/07/18 10:19:34;;;;;;;3.77;1.50;;;;;;;31.83;18.30;98682.66;8450642;28;20374;-78
2022/07/18 10:23:41;;;;;;;2.87;1.27;;;;;;;31.79;16.92;98681.38;8450208;28;20230;-78
2022/07/18 10:27:52;;;;;;;3.63;1.30;;;;;;;31.94;16.30;98682.16;8450211;28;20230;-79
2022/07/18 10:32:03;;;;;;;4.03;1.10;;;;;;;32.28;16.55;98680.72;8449683;28;20235;-78
2022/07/18 10:36:08;;;;;;;2.67;1.20;;;;;;;32.57;16.93;98676.28;8450127;28;20427;-78
2022/07/18 10:40:28;;;;;;;2.47;1.33;;;;;;;32.75;17.05;98689.22;8449838;28;20227;-78
2022/07/18 10:44:36;;;;;;;3.87;1.20;;;;;;;32.99;16.82;98672.69;8447559;28;20227;-79
2022/07/18 10:48:53;;;;;;;3.17;1.20;;;;;;;32.92;17.39;98674.53;8446148;28;20521;-79
2022/07/18 10:53:00;;;;;;;3.93;1.33;;;;;;;33.04;16.75;98672.13;8446705;28;20224;-79
2022/07/18 10:57:14;;;;;;;4.03;1.10;;;;;;;32.43;14.98;98681.50;8446381;28;20245;-76
2022/07/18 11:01:18;;;;;;;4.00;1.37;;;;;;;32.62;16.56;98672.00;8446568;28;20229;-77
2022/07/18 11:05:33;;;;;;;3.63;1.23;;;;;;;33.06;16.42;98675.44;8446283;28;20260;-77
2022/07/18 11:09:43;;;;;;;5.27;1.03;;;;;;;32.90;15.91;98671.19;8446263;28;20227;-78
2022/07/18 11:13:53;;;;;;;5.43;1.20;;;;;;;33.21;15.69;98667.31;8445707;28;20281;-78
2022/07/18 11:18:03;;;;;;;2.03;1.00;;;;;;;33.45;15.54;98652.56;8446052;28;20235;-79
2022/07/18 11:22:07;;;;;;;2.17;1.03;;;;;;;33.51;15.93;98649.13;8445370;28;20329;-78
2022/07/18 11:26:15;;;;;;;4.23;1.23;;;;;;;33.47;15.42;98650.53;8445620;28;20281;-80
2022/07/18 11:30:18;;;;;;;5.27;1.10;;;;;;;33.35;15.40;98646.75;8445226;28;20229;-80
2022/07/18 11:34:22;;;;;;;6.67;1.20;;;;;;;33.46;16.04;98647.03;8445444;28;20231;-79
2022/07/18 11:38:47;;;;;;;3.20;1.13;;;;;;;33.60;15.53;98647.06;8445208;28;20356;-79
2022/07/18 11:42:57;;;;;;;2.40;1.10;;;;;;;33.89;16.17;98648.66;8444816;28;20230;-79
2022/07/18 11:47:04;;;;;;;5.07;1.43;;;;;;;33.33;14.67;98640.75;8444957;28;20251;-79
2022/07/18 11:51:10;;;;;;;3.47;1.20;;;;;;;33.57;15.65;98636.75;8444905;28;20383;-79
2022/07/18 11:55:14;;;;;;;2.90;1.30;;;;;;;33.71;15.38;98632.28;8444855;28;20230;-80
2022/07/18 11:59:18;;;;;;;5.43;1.20;;;;;;;33.99;15.45;98632.19;8444805;28;20228;-79
2022/07/18 12:03:22;;;;;;;5.17;1.23;;;;;;;33.63;14.62;98628.75;8445833;28;20232;-79
2022/07/18 12:07:26;;;;;;;8.50;1.43;;;;;;;32.47;15.02;98620.28;8444766;28;20421;-79
2022/07/18 12:11:31;;;;;;;7.67;1.30;;;;;;;32.70;15.35;98610.19;8443216;28;20230;-79
2022/07/18 12:15:41;;;;;;;3.83;1.10;;;;;;;33.45;15.66;98606.94;8443323;28;20321;-79
2022/07/18 12:19:44;;;;;;;2.93;1.23;;;;;;;33.70;16.02;98604.63;8442952;28;20258;-80
2022/07/18 12:23:47;;;;;;;4.30;1.30;;;;;;;33.81;16.11;98612.06;8476243;28;20226;-78
2022/07/18 12:27:50;;;;;;;1.37;1.00;;;;;;;33.25;15.49;98602.31;8476717;28;20240;-79
2022/07/18 12:31:54;;;;;;;2.80;1.00;;;;;;;33.40;15.45;98602.19;8476608;28;20300;-80
2022/07/18 12:35:58;;;;;;;2.27;1.20;;;;;;;33.28;15.14;98596.56;8476256;28;20235;-78
2022/07/18 12:40:03;;;;;;;2.23;1.23;;;;;;;33.24;15.41;98599.81;8476246;28;20237;-76
2022/07/18 12:44:26;;;;;;;3.37;1.30;;;;;;;33.31;14.90;98593.47;8477666;28;20228;-81
2022/07/18 12:48:31;;;;;;;2.37;1.10;;;;;;;33.37;16.69;98594.53;8478073;28;20233;-78
2022/07/18 12:52:34;;;;;;;1.53;0.97;;;;;;;33.57;14.93;98591.13;8477758;28;20401;-79
2022/07/18 12:56:38;;;;;;;2.07;0.90;;;;;;;33.63;15.57;98593.00;8454095;28;20331;-79
2022/07/18 13:00:41;;;;;;;3.70;1.00;;;;;;;34.02;15.40;98580.72;8443947;28;20234;-79
2022/07/18 13:04:45;;;;;;;3.27;0.90;;;;;;;33.93;14.83;98582.78;8444021;28;20240;-79
2022/07/18 13:08:48;;;;;;;4.67;1.10;;;;;;;33.77;15.86;98577.78;8460333;28;20519;-79
2022/07/18 13:12:51;;;;;;;3.27;0.90;;;;;;;33.90;15.49;98572.44;8449053;28;20258;-79
2022/07/18 13:16:54;;;;;;;1.73;0.87;;;;;;;33.89;15.46;98568.06;8450038;28;20231;-79
2022/07/18 13:21:01;;;;;;;2.10;1.00;;;;;;;33.78;14.92;98566.00;8449968;28;20251;-79
2022/07/18 13:25:05;;;;;;;2.03;0.80;;;;;;;33.78;15.66;98569.50;8450921;28;20246;-78
2022/07/18 13:29:08;;;;;;;3.30;1.00;;;;;;;33.62;15.14;98562.59;8451664;28;20432;-79
2022/07/18 13:33:11;;;;;;;2.77;0.70;;;;;;;33.53;15.48;98561.16;8450331;28;20386;-78
2022/07/18 13:37:15;;;;;;;4.93;0.90;;;;;;;33.66;15.22;98558.53;8449409;28;20236;-79
2022/07/18 13:41:18;;;;;;;3.00;1.00;;;;;;;33.74;15.69;98559.34;8449464;28;20221;-78
2022/07/18 13:45:21;;;;;;;3.33;1.10;;;;;;;33.67;15.58;98551.31;8450352;28;20520;-79
2022/07/18 13:49:23;;;;;;;2.50;0.90;;;;;;;33.73;16.34;98545.13;8451038;28;20241;-79
2022/07/18 13:53:28;;;;;;;4.40;0.90;;;;;;;33.82;15.96;98543.91;8450568;28;20557;-79
2022/07/18 13:57:31;;;;;;;3.40;1.27;;;;;;;33.76;15.04;98541.19;8450922;28;20226;-79
2022/07/18 14:01:34;;;;;;;1.13;0.70;;;;;;;33.56;14.60;98541.94;8450748;28;20235;-79
2022/07/18 14:05:38;;;;;;;4.10;1.00;;;;;;;33.31;14.57;98544.34;8451048;28;20284;-80
2022/07/18 14:09:43;;;;;;;2.53;0.80;;;;;;;33.42;15.15;98542.94;8449896;28;20235;-79
2022/07/18 14:13:46;;;;;;;3.57;1.00;;;;;;;33.54;14.45;98538.63;8449393;28;20529;-80
2022/07/18 14:17:49;;;;;;;1.70;0.87;;;;;;;33.33;14.61;98534.22;8449309;28;20249;-79
2022/07/18 14:21:52;;;;;;;2.73;0.90;;;;;;;33.19;14.51;98527.16;8449332;28;20555;-80
2022/07/18 14:25:56;;;;;;;1.63;0.90;;;;;;;33.31;14.66;98525.56;8449531;28;20240;-80
2022/07/18 14:29:59;;;;;;;2.50;1.10;;;;;;;33.30;14.90;98524.72;8449022;28;20404;-80
2022/07/18 14:34:02;;;;;;;1.33;0.80;;;;;;;33.45;14.79;98523.72;8449094;28;20235;-78
2022/07/18 14:38:05;;;;;;;3.83;1.00;;;;;;;33.43;14.95;98523.94;8449083;28;20241;-79
2022/07/18 14:42:09;;;;;;;6.23;1.60;;;;;;;33.18;15.27;98515.59;8448976;28;20258;-79
2022/07/18 14:46:12;;;;;;;4.93;1.20;;;;;;;32.98;14.83;98520.03;8449827;28;20226;-79
2022/07/18 14:50:15;;;;;;;2.50;1.10;;;;;;;33.13;16.15;98515.38;8449785;28;20232;-79
2022/07/18 14:54:18;;;;;;;3.07;0.90;;;;;;;33.28;16.41;98513.38;8449046;28;20227;-80
2022/07/18 14:58:23;;;;;;;1.43;1.00;;;;;;;33.34;16.60;98510.88;8449183;28;20237;-81
2022/07/18 15:02:25;;;;;;;2.97;1.17;;;;;;;33.30;16.26;98503.25;8448519;28;20230;-79
2022/07/18 15:06:28;;;;;;;2.87;1.20;;;;;;;33.30;16.61;98503.25;8448973;28;20230;-80
2022/07/18 15:10:31;;;;;;;3.00;1.10;;;;;;;33.45;15.80;98492.38;8448958;28;20226;-80
2022/07/18 15:14:35;;;;;;;3.93;1.40;;;;;;;33.19;16.05;98494.97;8449587;28;20236;-80
2022/07/18 15:18:38;;;;;;;1.70;0.97;;;;;;;32.75;15.91;98485.44;8449667;28;20232;-80
2022/07/18 15:22:41;;;;;;;3.07;1.20;;;;;;;32.45;15.90;98486.47;8450551;28;20232;-79
2022/07/18 15:26:44;;;;;;;6.37;1.10;;;;;;;32.64;16.76;98486.84;8450178;28;20227;-81
2022/07/18 15:30:49;;;;;;;2.70;1.20;;;;;;;32.56;17.52;98486.94;8449026;28;20230;-80
2022/07/18 15:34:52;;;;;;;2.57;1.00;;;;;;;32.45;16.87;98491.00;8447639;28;20235;-74
2022/07/18 15:38:55;;;;;;;3.07;1.10;;;;;;;32.29;17.22;98481.41;8446860;28;20424;-81
2022/07/18 15:42:58;;;;;;;1.27;1.00;;;;;;;31.82;17.08;98474.81;8447513;28;20518;-77
2022/07/18 15:47:03;;;;;;;2.77;1.10;;;;;;;31.80;16.98;98466.97;8448811;28;20226;-77
2022/07/18 15:51:06;;;;;;;2.67;1.20;;;;;;;31.70;16.50;98469.13;8447431;28;20241;-81
2022/07/18 15:55:11;;;;;;;1.93;1.00;;;;;;;31.66;16.58;98463.34;8447586;28;20233;-77
2022/07/18 15:59:13;;;;;;;2.03;1.00;;;;;;;31.83;17.21;98460.41;8447785;28;20412;-80
2022/07/18 16:03:17;;;;;;;3.37;0.90;;;;;;;31.88;17.74;98457.97;8447283;28;20229;-79
2022/07/18 16:07:20;;;;;;;1.87;1.00;;;;;;;31.92;17.34;98461.94;8447212;28;20225;-78
2022/07/18 16:11:23;;;;;;;1.83;0.90;;;;;;;31.89;17.22;98456.94;8446186;28;20236;-82
2022/07/18 16:15:26;;;;;;;2.23;1.00;;;;;;;31.77;16.84;98451.28;8446837;28;20247;-78
2022/07/18 16:19:30;;;;;;;2.13;1.03;;;;;;;31.81;17.55;98451.75;8446674;28;20268;-78
2022/07/18 16:23:33;;;;;;;2.33;1.10;;;;;;;31.56;17.11;98452.94;8446640;28;20223;-80
2022/07/18 16:27:36;;;;;;;2.60;0.90;;;;;;;31.80;18.23;98442.06;8441791;28;20732;-78
2022/07/18 16:31:39;;;;;;;1.37;1.00;;;;;;;31.66;18.01;98443.78;8445892;28;20253;-77
2022/07/18 16:35:44;;;;;;;2.80;1.20;;;;;;;31.65;17.73;98437.59;8448697;28;20232;-77
2022/07/18 16:39:50;;;;;;;1.93;0.90;;;;;;;31.67;18.03;98437.41;8445988;28;20229;-79
2022/07/18 16:43:53;;;;;;;4.93;1.03;;;;;;;31.50;17.40;98424.28;8445689;28;20237;-80
2022/07/18 16:47:56;;;;;;;1.67;1.00;;;;;;;31.37;18.47;98429.47;8452049;28;20257;-80
2022/07/18 16:52:05;;;;;;;5.10;1.07;;;;;;;31.08;17.81;98417.84;8452452;28;20250;-81
2022/07/18 16:56:09;;;;;;;4.90;1.20;;;;;;;30.94;17.54;98418.72;8452961;28;20432;-81
2022/07/18 17:00:13;;;;;;;4.63;1.40;;;;;;;30.99;17.92;98417.13;8452805;28;20248;-79
2022/07/18 17:04:17;;;;;;;4.97;1.33;;;;;;;30.99;17.88;98418.97;8452507;28;20232;-74
2022/07/18 17:08:21;;;;;;;2.67;1.17;;;;;;;30.88;18.18;98424.78;8451888;28;20242;-77
2022/07/18 17:12:25;;;;;;;3.13;1.20;;;;;;;30.89;18.27;98418.41;8450355;28;20234;-77
2022/07/18 17:16:28;;;;;;;2.73;1.23;;;;;;;30.66;17.65;98419.38;8450433;28;20236;-75
2022/07/18 17:20:31;;;;;;;4.87;1.20;;;;;;;30.53;18.40;98414.66;8449794;28;20237;-75
2022/07/18 17:24:36;;;;;;;3.60;0.83;;;;;;;30.51;18.23;98419.38;8451896;28;20223;-74
2022/07/18 17:28:39;;;;;;;5.83;1.20;;;;;;;30.35;17.74;98416.91;8451733;28;20237;-75
2022/07/18 17:32:42;;;;;;;3.97;1.03;;;;;;;30.48;18.20;98417.09;8450850;28;20234;-76
2022/07/18 17:36:46;;;;;;;2.97;0.90;;;;;;;30.45;18.42;98416.63;8450728;28;20242;-74
2022/07/18 17:40:51;;;;;;;4.00;1.10;;;;;;;30.49;18.39;98417.91;8448578;28;20233;-75
2022/07/18 17:44:55;;;;;;;2.87;1.37;;;;;;;30.41;18.72;98418.84;8449938;28;20233;-76
2022/07/18 17:48:58;;;;;;;3.50;1.53;;;;;;;30.43;18.66;98421.31;8450625;28;20254;-77
2022/07/18 17:53:03;;;;;;;6.90;1.03;;;;;;;30.29;18.83;98420.25;8450912;28;20233;-76
2022/07/18 17:57:08;;;;;;;4.37;1.13;;;;;;;30.24;18.34;98415.47;8450741;28;20297;-77
2022/07/18 18:01:14;;;;;;;2.77;1.50;;;;;;;29.99;18.51;98413.03;8450730;28;20225;-82
2022/07/18 18:05:23;;;;;;;6.53;1.37;;;;;;;29.88;18.74;98413.47;8442691;28;20339;-78
2022/07/18 18:09:28;;;;;;;2.50;1.03;;;;;;;29.81;18.81;98410.69;8447173;28;20274;-76
2022/07/18 18:13:32;;;;;;;1.93;1.23;;;;;;;29.81;18.48;98410.69;8450474;28;20524;-79
2022/07/18 18:17:35;;;;;;;3.13;1.40;;;;;;;29.83;18.78;98413.19;8449697;28;20235;-76
2022/07/18 18:21:38;;;;;;;3.60;1.93;;;;;;;29.72;19.50;98406.44;8450484;28;20546;-75
2022/07/18 18:25:41;;;;;;;2.83;1.40;;;;;;;29.60;19.96;98411.34;8450175;28;20228;-77
2022/07/18 18:29:46;;;;;;;4.20;1.10;;;;;;;29.50;19.73;98399.28;8450060;28;20231;-77
2022/07/18 18:33:48;;;;;;;1.97;1.10;;;;;;;29.47;19.97;98412.94;8466236;28;20540;-74
2022/07/18 18:37:53;;;;;;;4.30;1.10;;;;;;;29.42;20.06;98408.97;8449879;28;20233;-76
2022/07/18 18:41:56;;;;;;;3.83;1.10;;;;;;;29.36;20.31;98409.69;8449759;28;20237;-72
2022/07/18 18:46:00;;;;;;;2.00;1.00;;;;;;;29.32;20.38;98411.06;8446020;28;20442;-77
2022/07/18 18:50:04;;;;;;;3.50;1.00;;;;;;;29.20;20.26;98410.63;8448860;28;20237;-75
2022/07/18 18:54:08;;;;;;;5.03;1.20;;;;;;;29.09;20.29;98416.31;8449431;28;20240;-75
2022/07/18 18:58:11;;;;;;;3.80;1.30;;;;;;;29.03;20.77;98417.88;8449296;28;20524;-75
2022/07/18 19:02:15;;;;;;;2.53;1.60;;;;;;;28.96;20.83;98419.59;8448634;28;20535;-75
2022/07/18 19:06:18;;;;;;;4.87;1.50;;;;;;;28.99;20.69;98413.06;8461549;28;20228;-75
2022/07/18 19:10:21;;;;;;;1.67;1.00;;;;;;;28.95;21.11;98411.75;8464717;28;20518;-76